Mount Carmel, Connecticut
Current Conditions -  °F | °C
As of 1:53 PM on Friday 24 Oct 2014 (Local Time) from KMMK Reporting Station
Overcast Overcast  
Wind Chill: 55°   Ceiling: 3200
Heat Index: 55°   Visibility: 10mi
Dew Point: 42°   Wind: 10mph
Humidity: 62%   Direction: 310°NW
Pressure: 29.74"   Gusts: 23mph
Location:  41.4267°N, 72.9138°W
Report Text: KMMK 241753Z AUTO 31009G20KT 10SM BKN032 OVC043 13/06 A2974 RMK AO2 SLP070 60004 T01280056 10139 20089 TSNO $
Loading
Personal Weather Stations






























Interactive Weather Map
Tropical Storm Tracking
New forecast layout! Learn more

10-Day Weather Forecast

Advertisements
Track Severe Weather on mobile